Bueyeros, New Mexico
Current Conditions -  °F | °C
As of 6:55 AM on Monday 26 Jan 2015 (Local Time) from KCAO Reporting Station
Clear Clear  
Wind Chill: 34°   Ceiling: Unl
Heat Index: 41°   Visibility: 10mi
Dew Point: 25°   Wind: 13mph
Humidity: 53%   Direction: 290°WNW
Pressure: 30.26"   Gusts: NA
Location:  36.2639°N, 103.376°W
Report Text: KCAO 261355Z AUTO 29011KT 10SM CLR 05/M04 A3026 RMK AO2 SLP244 T00501039
Loading
Personal Weather Stations






























Interactive Weather Map New forecast layout! Learn more

10-Day Weather Forecast

Advertisements
Track Severe Weather on mobile